createdAt,value
2019-03-11T00:02:24.538Z,1.70
2019-03-11T00:04:52.595Z,2.90
2019-03-11T00:07:20.650Z,2.00
2019-03-11T00:09:48.764Z,2.70
2019-03-11T00:12:16.811Z,1.77
2019-03-11T00:14:44.867Z,1.37
2019-03-11T00:17:12.922Z,1.70
2019-03-11T00:19:40.979Z,1.83
2019-03-11T00:22:09.170Z,2.33
2019-03-11T00:24:37.231Z,2.57
2019-03-11T00:27:05.311Z,1.77
2019-03-11T00:29:33.373Z,1.87
2019-03-11T00:32:01.431Z,1.93
2019-03-11T00:34:29.502Z,2.87
2019-03-11T00:36:57.545Z,1.80
2019-03-11T00:39:25.586Z,1.93
2019-03-11T00:41:53.650Z,1.80
2019-03-11T00:44:21.729Z,1.97
2019-03-11T00:46:49.774Z,2.63
2019-03-11T00:49:17.847Z,1.50
2019-03-11T00:51:46.693Z,1.70
2019-03-11T00:54:14.814Z,2.07
2019-03-11T00:56:42.866Z,2.17
2019-03-11T00:59:10.925Z,1.87
2019-03-11T01:01:38.967Z,2.37
2019-03-11T01:04:07.039Z,2.00
2019-03-11T01:06:35.096Z,2.10
2019-03-11T01:09:04.086Z,1.67
2019-03-11T01:11:32.194Z,2.27
2019-03-11T01:14:00.266Z,2.10
2019-03-11T01:16:28.486Z,2.43
2019-03-11T01:18:56.535Z,1.53
2019-03-11T01:21:24.581Z,2.77
2019-03-11T01:23:52.653Z,1.60
2019-03-11T01:26:20.699Z,1.63
2019-03-11T01:28:48.763Z,1.97
2019-03-11T01:31:16.814Z,1.90
2019-03-11T01:33:44.874Z,1.70
2019-03-11T01:36:12.946Z,1.70
2019-03-11T01:38:40.991Z,2.03
2019-03-11T01:41:09.062Z,1.83
2019-03-11T01:43:37.163Z,1.70
2019-03-11T01:46:05.241Z,2.07
2019-03-11T01:48:33.287Z,1.77
2019-03-11T01:51:01.346Z,3.37
2019-03-11T01:53:29.447Z,1.87
2019-03-11T01:55:57.494Z,2.30
2019-03-11T01:58:25.546Z,2.50
2019-03-11T02:00:53.670Z,2.53
2019-03-11T02:03:21.725Z,1.87
2019-03-11T02:05:49.806Z,1.90
2019-03-11T02:08:17.860Z,1.80
2019-03-11T02:10:49.063Z,2.00
2019-03-11T02:13:17.254Z,1.70
2019-03-11T02:15:45.294Z,2.03
2019-03-11T02:18:13.354Z,3.10
2019-03-11T02:20:41.422Z,1.80
2019-03-11T02:23:09.485Z,1.80
2019-03-11T02:25:37.510Z,2.33
2019-03-11T02:28:05.622Z,3.00
2019-03-11T02:30:33.671Z,2.10
2019-03-11T02:33:01.720Z,2.03
2019-03-11T02:35:29.942Z,1.80
2019-03-11T02:37:57.990Z,2.10
2019-03-11T02:40:26.717Z,1.70
2019-03-11T02:42:54.771Z,2.40
2019-03-11T02:45:22.845Z,2.07
2019-03-11T02:47:50.951Z,2.33
2019-03-11T02:50:19.017Z,2.20
2019-03-11T02:52:47.099Z,3.57
2019-03-11T02:55:15.162Z,2.90
2019-03-11T02:57:43.205Z,2.47
2019-03-11T03:00:19.079Z,2.67
2019-03-11T03:02:54.607Z,1.80
2019-03-11T03:05:30.526Z,1.77
2019-03-11T03:07:58.554Z,2.30
2019-03-11T03:10:26.619Z,1.93
2019-03-11T03:12:54.832Z,2.57
2019-03-11T03:15:22.886Z,2.60
2019-03-11T03:17:50.939Z,2.30
2019-03-11T03:20:19.006Z,2.53
2019-03-11T03:22:47.151Z,2.10
2019-03-11T03:25:15.297Z,2.47
2019-03-11T03:27:43.461Z,2.63
2019-03-11T03:30:13.083Z,1.00
2019-03-11T03:32:41.131Z,0.60
2019-03-11T03:35:09.187Z,0.13
2019-03-11T03:37:37.246Z,0.30
2019-03-11T03:40:06.986Z,0.20
2019-03-11T03:42:35.176Z,0.10
2019-03-11T03:45:21.389Z,0.10
2019-03-11T03:47:49.695Z,0.13
2019-03-11T03:50:17.802Z,0.20
2019-03-11T03:52:45.843Z,0.10
2019-03-11T03:55:13.896Z,0.20
2019-03-11T03:57:41.940Z,0.17
2019-03-11T04:00:10.479Z,0.53
2019-03-11T04:02:38.526Z,0.20
2019-03-11T04:05:07.967Z,0.20
2019-03-11T04:07:36.007Z,0.33
2019-03-11T04:10:08.483Z,0.30
2019-03-11T04:12:37.497Z,0.33
2019-03-11T04:15:06.706Z,0.40
2019-03-11T04:17:34.990Z,0.90
2019-03-11T04:20:03.832Z,2.17
2019-03-11T04:22:31.884Z,0.60
2019-03-11T04:24:59.918Z,0.93
2019-03-11T04:27:28.002Z,1.20
2019-03-11T04:29:56.047Z,1.93
2019-03-11T04:32:24.096Z,0.47
2019-03-11T04:34:52.151Z,0.60
2019-03-11T04:37:20.197Z,0.50
2019-03-11T04:39:48.339Z,0.50
2019-03-11T04:42:16.378Z,0.50
2019-03-11T04:44:44.442Z,0.40
2019-03-11T04:47:12.503Z,0.27
2019-03-11T04:49:40.605Z,0.30
2019-03-11T04:52:08.692Z,1.90
2019-03-11T04:54:36.842Z,0.90
2019-03-11T04:57:04.890Z,0.70
2019-03-11T04:59:32.946Z,0.30
2019-03-11T05:02:01.085Z,0.70
2019-03-11T05:04:29.118Z,0.17
2019-03-11T05:06:57.182Z,0.13
2019-03-11T05:09:25.243Z,0.20
2019-03-11T05:11:53.286Z,0.10
2019-03-11T05:14:21.351Z,0.00
2019-03-11T05:16:49.404Z,0.10
2019-03-11T05:19:17.514Z,0.00
2019-03-11T05:21:45.562Z,0.17
2019-03-11T05:24:13.704Z,0.10
2019-03-11T05:26:41.761Z,0.10
2019-03-11T05:29:09.829Z,0.10
2019-03-11T05:31:37.890Z,0.13
2019-03-11T05:34:05.941Z,0.30
2019-03-11T05:36:34.001Z,0.20
2019-03-11T05:39:02.141Z,0.27
2019-03-11T05:41:30.193Z,0.30
2019-03-11T05:43:58.285Z,0.30
2019-03-11T05:46:26.347Z,0.17
2019-03-11T05:48:54.458Z,0.40
2019-03-11T05:51:31.086Z,0.30
2019-03-11T05:53:52.279Z,0.20
2019-03-11T05:56:20.334Z,0.47
2019-03-11T05:58:48.403Z,0.47
2019-03-11T06:01:16.479Z,0.50
2019-03-11T06:03:44.589Z,0.30
2019-03-11T06:06:12.638Z,0.60
2019-03-11T06:08:40.695Z,0.10
2019-03-11T06:11:08.789Z,0.20
2019-03-11T06:13:36.834Z,0.20
2019-03-11T06:16:04.887Z,0.23
2019-03-11T06:18:37.757Z,0.23
2019-03-11T06:21:23.524Z,0.70
2019-03-11T06:23:51.580Z,0.40
2019-03-11T06:26:19.630Z,0.20
2019-03-11T06:28:47.696Z,0.20
2019-03-11T06:31:15.802Z,0.50
2019-03-11T06:33:43.860Z,0.20
2019-03-11T06:36:11.924Z,0.40
2019-03-11T06:38:39.977Z,0.40
2019-03-11T06:41:08.039Z,0.43
2019-03-11T06:43:36.167Z,0.27
2019-03-11T06:46:04.360Z,0.20
2019-03-11T06:48:32.406Z,0.30
2019-03-11T06:51:00.454Z,0.50
2019-03-11T06:53:28.514Z,0.40
2019-03-11T06:55:56.561Z,0.30
2019-03-11T06:58:24.610Z,0.30
2019-03-11T07:00:52.669Z,0.80
2019-03-11T07:03:21.261Z,0.40
2019-03-11T07:05:49.335Z,0.30
2019-03-11T07:08:17.400Z,0.30
2019-03-11T07:10:45.486Z,0.40
2019-03-11T07:13:13.518Z,0.27
2019-03-11T07:15:41.618Z,0.40
2019-03-11T07:18:09.667Z,0.50
2019-03-11T07:20:39.112Z,0.63
2019-03-11T07:23:07.312Z,0.30
2019-03-11T07:25:35.354Z,0.30
2019-03-11T07:28:03.415Z,0.40
2019-03-11T07:30:31.506Z,0.40
2019-03-11T07:32:59.582Z,0.40
2019-03-11T07:35:27.642Z,0.50
2019-03-11T07:37:55.818Z,0.40
2019-03-11T07:40:29.800Z,0.40
2019-03-11T07:42:53.600Z,0.40
2019-03-11T07:45:21.661Z,0.50
2019-03-11T07:47:49.712Z,0.80
2019-03-11T07:50:17.749Z,0.50
2019-03-11T07:52:45.806Z,0.73
2019-03-11T07:55:13.932Z,0.70
2019-03-11T07:57:41.956Z,0.50
2019-03-11T08:00:11.558Z,0.80
2019-03-11T08:02:39.598Z,0.80
2019-03-11T08:05:08.819Z,0.60
2019-03-11T08:07:36.926Z,0.60
2019-03-11T08:10:12.622Z,0.70
2019-03-11T08:12:40.658Z,0.77
2019-03-11T08:15:10.166Z,0.70
2019-03-11T08:17:38.222Z,0.90
2019-03-11T08:20:07.538Z,0.70
2019-03-11T08:22:35.597Z,0.77
2019-03-11T08:25:04.504Z,0.87
2019-03-11T08:27:32.554Z,0.70
2019-03-11T08:30:00.627Z,0.87
2019-03-11T08:32:28.723Z,0.90
2019-03-11T08:34:56.818Z,0.70
2019-03-11T08:37:24.888Z,0.80
2019-03-11T08:39:52.968Z,1.07
2019-03-11T08:42:21.013Z,1.07
2019-03-11T08:44:49.055Z,0.90
2019-03-11T08:47:17.110Z,0.90
2019-03-11T08:49:45.166Z,0.50
2019-03-11T08:52:13.426Z,0.70
2019-03-11T08:54:41.469Z,0.77
2019-03-11T08:57:09.529Z,0.73
2019-03-11T08:59:37.581Z,1.40
2019-03-11T09:02:05.671Z,0.90
2019-03-11T09:04:33.746Z,0.80
2019-03-11T09:07:01.787Z,0.70
2019-03-11T09:09:31.671Z,0.70
2019-03-11T09:11:59.612Z,0.90
2019-03-11T09:14:27.651Z,1.50
2019-03-11T09:16:55.694Z,1.00
2019-03-11T09:19:23.800Z,0.90
2019-03-11T09:21:51.845Z,0.83
2019-03-11T09:24:19.923Z,0.90
2019-03-11T09:26:48.246Z,1.20
2019-03-11T09:29:16.286Z,1.30
2019-03-11T09:31:44.365Z,0.83
2019-03-11T09:34:12.410Z,1.20
2019-03-11T09:36:40.465Z,1.13
2019-03-11T09:39:09.497Z,1.27
2019-03-11T09:41:37.530Z,0.90
2019-03-11T09:44:05.667Z,1.10
2019-03-11T09:46:33.741Z,1.00
2019-03-11T09:49:01.806Z,0.83
2019-03-11T09:51:30.935Z,1.00
2019-03-11T09:53:58.975Z,0.70
2019-03-11T09:56:27.066Z,0.60
2019-03-11T09:58:55.106Z,0.70
2019-03-11T10:01:23.162Z,0.80
2019-03-11T10:03:51.199Z,0.50
2019-03-11T10:06:19.244Z,0.90
2019-03-11T10:08:47.344Z,0.63
2019-03-11T10:11:15.393Z,1.10
2019-03-11T10:13:43.450Z,1.20
2019-03-11T10:16:11.482Z,1.00
2019-03-11T10:18:39.790Z,0.60
2019-03-11T10:21:07.871Z,0.70
2019-03-11T10:23:35.932Z,0.70
2019-03-11T10:26:03.974Z,0.53
2019-03-11T10:28:32.046Z,0.67
2019-03-11T10:31:00.091Z,0.77
2019-03-11T10:33:28.130Z,0.70
2019-03-11T10:35:56.205Z,0.73
2019-03-11T10:38:24.268Z,0.90
2019-03-11T10:40:52.320Z,0.70
2019-03-11T10:43:20.358Z,0.93
2019-03-11T10:45:48.407Z,0.90
2019-03-11T10:48:16.469Z,1.80
2019-03-11T10:50:44.526Z,0.70
2019-03-11T10:53:12.566Z,0.90
2019-03-11T10:55:40.612Z,0.80
2019-03-11T10:58:08.738Z,0.80
2019-03-11T11:00:37.223Z,0.70
2019-03-11T11:03:05.339Z,1.20
2019-03-11T11:05:33.440Z,0.87
2019-03-11T11:08:01.482Z,0.93
2019-03-11T11:10:29.546Z,0.90
2019-03-11T11:12:57.594Z,1.10
2019-03-11T11:15:27.173Z,0.90
2019-03-11T11:17:55.298Z,0.83
2019-03-11T11:20:23.534Z,1.00
2019-03-11T11:22:52.142Z,0.73
2019-03-11T11:25:21.727Z,0.90
2019-03-11T11:27:49.943Z,0.83
2019-03-11T11:30:21.508Z,0.77
2019-03-11T11:32:49.666Z,0.83
2019-03-11T11:35:17.774Z,0.50
2019-03-11T11:37:45.889Z,0.90
2019-03-11T11:40:14.998Z,1.10
2019-03-11T11:42:43.047Z,0.90
2019-03-11T11:45:12.453Z,1.03
2019-03-11T11:47:40.578Z,0.90
2019-03-11T11:50:10.494Z,0.83
2019-03-11T11:52:38.541Z,0.70
2019-03-11T11:55:07.764Z,1.20
2019-03-11T11:57:35.814Z,0.97
2019-03-11T12:00:05.392Z,0.80
2019-03-11T12:02:33.454Z,0.97
2019-03-11T12:05:01.503Z,1.53
2019-03-11T12:07:29.565Z,0.83
2019-03-11T12:09:57.662Z,0.90
2019-03-11T12:12:25.718Z,0.77
2019-03-11T12:14:53.780Z,0.80
2019-03-11T12:17:23.515Z,0.90
2019-03-11T12:19:51.752Z,1.00
2019-03-11T12:22:19.794Z,1.00
2019-03-11T12:24:47.832Z,1.23
2019-03-11T12:27:15.887Z,0.60
2019-03-11T12:29:43.922Z,0.80
2019-03-11T12:32:11.953Z,0.63
2019-03-11T12:34:40.014Z,0.97
2019-03-11T12:37:08.074Z,0.60
2019-03-11T12:39:36.119Z,0.90
2019-03-11T12:42:04.162Z,0.93
2019-03-11T12:44:32.467Z,0.70
2019-03-11T12:47:00.527Z,1.10
2019-03-11T12:49:28.581Z,0.80
2019-03-11T12:51:59.557Z,0.70
2019-03-11T12:54:27.651Z,1.00
2019-03-11T12:56:55.702Z,0.70
2019-03-11T12:59:23.738Z,0.90
2019-03-11T13:01:51.803Z,1.00
2019-03-11T13:04:19.847Z,0.67
2019-03-11T13:06:47.890Z,1.00
2019-03-11T13:09:15.936Z,0.73
2019-03-11T13:11:44.008Z,0.70
2019-03-11T13:14:12.036Z,0.50
2019-03-11T13:16:40.103Z,1.17
2019-03-11T13:19:13.303Z,0.50
2019-03-11T13:21:37.908Z,0.83
2019-03-11T13:24:05.980Z,0.60
2019-03-11T13:26:34.021Z,1.57
2019-03-11T13:29:02.114Z,0.63
2019-03-11T13:31:30.149Z,0.57
2019-03-11T13:33:58.206Z,0.43
2019-03-11T13:36:26.251Z,0.80
2019-03-11T13:38:54.294Z,0.63
2019-03-11T13:41:22.355Z,0.93
2019-03-11T13:43:50.467Z,0.83
2019-03-11T13:46:18.510Z,0.60
2019-03-11T13:48:46.558Z,0.70
2019-03-11T13:51:15.325Z,0.77
2019-03-11T13:53:43.510Z,0.67
2019-03-11T13:56:11.566Z,1.00
2019-03-11T13:58:40.594Z,0.80
2019-03-11T14:01:08.643Z,0.40
2019-03-11T14:03:36.679Z,0.70
2019-03-11T14:06:04.726Z,0.60
2019-03-11T14:08:32.785Z,0.70
2019-03-11T14:11:00.814Z,0.97
2019-03-11T14:13:28.894Z,0.57
2019-03-11T14:15:57.298Z,0.50
2019-03-11T14:18:25.458Z,0.70
2019-03-11T14:20:53.500Z,0.60
2019-03-11T14:23:21.542Z,0.60
2019-03-11T14:25:49.622Z,0.70
2019-03-11T14:28:17.651Z,0.90
2019-03-11T14:30:45.708Z,0.87
2019-03-11T14:33:13.751Z,0.83
2019-03-11T14:35:41.790Z,0.73
2019-03-11T14:38:09.850Z,0.73
2019-03-11T14:40:37.882Z,0.80
2019-03-11T14:43:05.942Z,1.10
2019-03-11T14:45:33.985Z,0.67
2019-03-11T14:48:02.195Z,0.60
2019-03-11T14:50:30.255Z,0.90
2019-03-11T14:52:58.489Z,1.53
2019-03-11T14:55:26.570Z,0.60
2019-03-11T14:57:54.602Z,0.90
2019-03-11T15:00:22.642Z,0.60
2019-03-11T15:02:50.711Z,0.93
2019-03-11T15:05:19.031Z,0.60
2019-03-11T15:07:47.144Z,0.63
2019-03-11T15:10:18.363Z,1.00
2019-03-11T15:12:46.474Z,0.60
2019-03-11T15:15:15.383Z,0.93
2019-03-11T15:17:43.418Z,0.70
2019-03-11T15:20:11.560Z,0.80
2019-03-11T15:22:39.606Z,0.87
2019-03-11T15:25:08.616Z,0.90
2019-03-11T15:27:36.670Z,0.60
2019-03-11T15:30:06.493Z,0.73
2019-03-11T15:32:34.586Z,0.80
2019-03-11T15:35:02.669Z,1.20
2019-03-11T15:37:30.726Z,0.90
2019-03-11T15:39:58.758Z,0.90
2019-03-11T15:42:26.808Z,1.37
2019-03-11T15:44:54.862Z,1.00
2019-03-11T15:47:22.931Z,2.60
2019-03-11T15:49:51.005Z,2.27
2019-03-11T15:52:19.050Z,1.43
2019-03-11T15:54:47.094Z,1.47
2019-03-11T15:57:15.142Z,1.20
2019-03-11T15:59:43.177Z,1.47
2019-03-11T16:02:11.242Z,1.27
2019-03-11T16:04:39.289Z,1.10
2019-03-11T16:07:07.337Z,0.97
2019-03-11T16:09:35.386Z,1.23
2019-03-11T16:12:03.445Z,1.30
2019-03-11T16:14:31.528Z,1.00
2019-03-11T16:16:59.696Z,1.30
2019-03-11T16:19:27.847Z,0.90
2019-03-11T16:21:55.959Z,1.83
2019-03-11T16:24:23.994Z,1.17
2019-03-11T16:26:52.064Z,1.53
2019-03-11T16:29:20.086Z,1.00
2019-03-11T16:31:48.135Z,1.40
2019-03-11T16:34:16.191Z,1.03
2019-03-11T16:36:44.234Z,0.90
2019-03-11T16:39:12.285Z,1.30
2019-03-11T16:41:40.342Z,1.50
2019-03-11T16:44:08.394Z,1.00
2019-03-11T16:46:36.438Z,1.17
2019-03-11T16:49:04.498Z,0.93
2019-03-11T16:51:33.444Z,0.80
2019-03-11T16:54:01.450Z,0.73
2019-03-11T16:56:29.497Z,1.00
2019-03-11T16:58:57.630Z,1.23
2019-03-11T17:01:25.669Z,1.03
2019-03-11T17:03:53.786Z,0.90
2019-03-11T17:06:21.826Z,2.50
2019-03-11T17:08:49.874Z,1.10
2019-03-11T17:11:17.927Z,1.00
2019-03-11T17:14:11.026Z,0.80
2019-03-11T17:16:39.134Z,0.70
2019-03-11T17:19:07.290Z,0.97
2019-03-11T17:21:35.372Z,0.93
2019-03-11T17:24:03.411Z,0.93
2019-03-11T17:26:31.448Z,1.40
2019-03-11T17:28:59.510Z,0.90
2019-03-11T17:31:27.555Z,0.83
2019-03-11T17:33:55.594Z,0.80
2019-03-11T17:36:23.642Z,0.93
2019-03-11T17:38:51.678Z,0.70
2019-03-11T17:41:19.749Z,0.77
2019-03-11T17:43:47.789Z,1.00
2019-03-11T17:46:15.839Z,1.10
2019-03-11T17:48:43.890Z,1.03
2019-03-11T17:51:12.824Z,1.07
2019-03-11T17:53:40.954Z,1.10
2019-03-11T17:56:09.086Z,1.10
2019-03-11T17:58:37.135Z,1.10
2019-03-11T18:01:05.354Z,0.93
2019-03-11T18:03:33.418Z,0.87
2019-03-11T18:06:11.113Z,0.77
2019-03-11T18:08:31.235Z,0.87
2019-03-11T18:10:59.295Z,1.20
2019-03-11T18:13:27.353Z,1.00
2019-03-11T18:15:55.477Z,1.47
2019-03-11T18:18:32.767Z,1.10
2019-03-11T18:23:28.918Z,0.80
2019-03-11T18:25:57.003Z,1.50
2019-03-11T18:28:25.079Z,1.50
2019-03-11T18:30:53.189Z,1.27
2019-03-11T18:33:21.249Z,1.43
2019-03-11T18:35:49.339Z,3.13
2019-03-11T18:38:17.378Z,1.67
2019-03-11T18:40:45.448Z,2.20
2019-03-11T18:43:20.564Z,1.47
2019-03-11T18:45:43.234Z,1.70
2019-03-11T18:48:11.302Z,1.43
2019-03-11T18:50:39.409Z,2.23
2019-03-11T18:53:07.459Z,1.30
2019-03-11T18:55:35.511Z,1.10
2019-03-11T18:58:03.580Z,1.23
2019-03-11T19:00:31.727Z,1.10
2019-03-11T19:02:59.777Z,1.23
2019-03-11T19:05:27.861Z,1.10
2019-03-11T19:07:55.953Z,1.10
2019-03-11T19:10:24.178Z,1.57
2019-03-11T19:12:52.299Z,1.23
2019-03-11T19:15:20.908Z,1.30
2019-03-11T19:17:49.011Z,1.40
2019-03-11T19:20:18.049Z,1.43
2019-03-11T19:22:46.367Z,1.30
2019-03-11T19:25:14.586Z,1.20
2019-03-11T19:27:42.655Z,1.17
2019-03-11T19:30:12.338Z,1.20
2019-03-11T19:32:40.409Z,1.30
2019-03-11T19:35:08.436Z,1.37
2019-03-11T19:37:36.506Z,1.30
2019-03-11T19:40:06.154Z,1.17
2019-03-11T19:42:35.234Z,1.43
2019-03-11T19:45:03.643Z,1.57
2019-03-11T19:47:31.733Z,2.07
2019-03-11T19:49:59.938Z,1.53
2019-03-11T19:52:27.978Z,1.30
2019-03-11T19:54:56.030Z,1.87
2019-03-11T19:57:24.088Z,1.27
2019-03-11T19:59:52.181Z,1.23
2019-03-11T20:02:20.301Z,1.33
2019-03-11T20:04:48.375Z,1.37
2019-03-11T20:07:16.730Z,1.60
2019-03-11T20:09:44.838Z,1.63
2019-03-11T20:12:13.191Z,1.50
2019-03-11T20:14:41.343Z,1.60
2019-03-11T20:17:09.375Z,1.50
2019-03-11T20:19:37.450Z,1.30
2019-03-11T20:22:05.710Z,1.70
2019-03-11T20:24:33.784Z,1.40
2019-03-11T20:27:01.960Z,2.00
2019-03-11T20:29:30.196Z,1.70
2019-03-11T20:31:58.351Z,2.00
2019-03-11T20:34:26.405Z,2.13
2019-03-11T20:36:54.541Z,1.80
2019-03-11T20:42:03.380Z,2.50
2019-03-11T20:44:31.460Z,2.13
2019-03-11T20:46:59.518Z,2.37
2019-03-11T20:49:27.643Z,1.73
2019-03-11T20:51:56.771Z,1.83
2019-03-11T20:54:24.981Z,2.57
2019-03-11T20:56:53.073Z,1.97
2019-03-11T20:59:21.122Z,2.00
2019-03-11T21:01:49.161Z,2.67
2019-03-11T21:04:17.234Z,2.17
2019-03-11T21:06:45.265Z,2.87
2019-03-11T21:09:13.424Z,2.73
2019-03-11T21:11:41.560Z,2.40
2019-03-11T21:14:09.711Z,2.10
2019-03-11T21:16:37.786Z,2.50
2019-03-11T21:19:05.928Z,2.57
2019-03-11T21:21:33.995Z,2.20
2019-03-11T21:24:02.469Z,2.87
2019-03-11T21:26:30.632Z,2.13
2019-03-11T21:29:02.175Z,2.10
2019-03-11T21:31:29.048Z,2.13
2019-03-11T21:33:58.774Z,2.40
2019-03-11T21:36:27.397Z,2.43
2019-03-11T21:38:55.474Z,2.50
2019-03-11T21:41:23.548Z,2.40
2019-03-11T21:43:51.777Z,2.57
2019-03-11T21:46:19.829Z,2.60
2019-03-11T21:48:48.060Z,2.47
2019-03-11T21:51:17.020Z,2.90
2019-03-11T21:53:45.882Z,3.20
2019-03-11T21:56:14.009Z,2.33
2019-03-11T21:58:45.543Z,2.00
2019-03-11T22:01:14.019Z,2.27
2019-03-11T22:03:42.025Z,1.80
2019-03-11T22:06:10.065Z,2.07
2019-03-11T22:08:38.143Z,2.10
2019-03-11T22:11:07.134Z,1.57
2019-03-11T22:13:35.226Z,2.53
2019-03-11T22:16:03.341Z,2.50
2019-03-11T22:18:31.386Z,1.97
2019-03-11T22:20:59.454Z,1.90
2019-03-11T22:23:27.602Z,1.50
2019-03-11T22:25:55.684Z,1.67
2019-03-11T22:28:23.748Z,1.53
2019-03-11T22:30:51.924Z,1.70
2019-03-11T22:33:20.012Z,1.40
2019-03-11T22:35:48.058Z,1.63
2019-03-11T22:38:16.119Z,2.23
2019-03-11T22:40:44.175Z,1.13
2019-03-11T22:43:12.274Z,1.50
2019-03-11T22:45:40.409Z,1.43
2019-03-11T22:48:08.507Z,1.53
2019-03-11T22:50:36.650Z,1.27
2019-03-11T22:53:04.705Z,1.60
2019-03-11T22:55:32.794Z,1.47
2019-03-11T22:58:00.838Z,1.60
2019-03-11T23:00:41.194Z,1.50
2019-03-11T23:03:09.727Z,1.47
2019-03-11T23:05:37.778Z,2.33
2019-03-11T23:08:05.845Z,1.50
2019-03-11T23:10:34.136Z,1.83
2019-03-11T23:13:02.186Z,1.80
2019-03-11T23:15:30.241Z,1.57
2019-03-11T23:17:58.295Z,1.53
2019-03-11T23:20:26.366Z,1.47
2019-03-11T23:22:54.414Z,1.83
2019-03-11T23:25:22.480Z,2.10
2019-03-11T23:27:51.000Z,2.00
2019-03-11T23:30:19.106Z,1.60
2019-03-11T23:32:47.152Z,1.57
2019-03-11T23:35:15.201Z,1.43
2019-03-11T23:37:43.272Z,2.00
2019-03-11T23:40:11.398Z,1.90
2019-03-11T23:42:39.464Z,1.70
2019-03-11T23:45:09.082Z,2.07
2019-03-11T23:47:37.140Z,1.87
2019-03-11T23:50:06.735Z,2.03
2019-03-11T23:52:34.859Z,2.30
2019-03-11T23:55:04.125Z,2.20
2019-03-11T23:57:32.186Z,2.27
